Time;durP1;ratioP1;P1;durP2;ratioP2;P2;SDS_P1;SDS_P2;PMS_P1;PMS_P2;Temp;Humidity;BMP_temperature;BMP_pressure;BME280_temperature;BME280_humidity;BME280_pressure;Samples;Min_cycle;Max_cycle;Signal;HPM_P1;HPM_P2
2022/03/06 00:01:15;;;;;;;18.17;11.30;;;;;;;8.68;31.51;101496.94;5069699;28;20045;-61
2022/03/06 00:03:44;;;;;;;16.45;11.25;;;;;;;8.64;31.36;101502.25;5072534;28;20051;-61
2022/03/06 00:06:13;;;;;;;17.40;11.85;;;;;;;8.63;31.49;101505.81;5071660;28;20480;-61
2022/03/06 00:08:41;;;;;;;19.48;12.02;;;;;;;8.61;31.45;101493.69;5072446;28;20047;-61
2022/03/06 00:11:08;;;;;;;18.15;12.23;;;;;;;8.56;31.54;101501.69;5071965;28;20044;-60
2022/03/06 00:13:35;;;;;;;21.60;11.85;;;;;;;8.55;31.60;101491.28;5072507;28;20072;-61
2022/03/06 00:16:03;;;;;;;17.33;11.45;;;;;;;8.55;31.39;101497.38;5072482;28;20160;-60
2022/03/06 00:18:29;;;;;;;19.35;12.18;;;;;;;8.50;31.54;101491.47;5072517;28;20078;-61
2022/03/06 00:20:58;;;;;;;17.17;11.35;;;;;;;8.52;31.56;101492.25;5070965;28;20048;-60
2022/03/06 00:23:26;;;;;;;19.80;11.73;;;;;;;8.48;31.58;101491.50;5071938;28;20053;-60
2022/03/06 00:25:52;;;;;;;17.90;12.05;;;;;;;8.49;31.59;101494.97;5071817;28;20044;-61
2022/03/06 00:28:19;;;;;;;19.15;12.07;;;;;;;8.50;31.36;101492.28;5071287;28;20044;-60
2022/03/06 00:30:47;;;;;;;18.70;11.27;;;;;;;8.44;31.32;101491.63;5071766;28;20417;-61
2022/03/06 00:33:14;;;;;;;21.75;11.93;;;;;;;8.49;31.48;101498.47;5072328;28;20099;-61
2022/03/06 00:35:41;;;;;;;17.55;11.80;;;;;;;8.41;31.94;101500.44;5071964;28;20045;-61
2022/03/06 00:38:08;;;;;;;21.75;12.23;;;;;;;8.44;31.80;101502.97;5072042;28;20401;-61
2022/03/06 00:40:34;;;;;;;19.65;12.20;;;;;;;8.41;31.97;101499.59;5070162;28;20052;-60
2022/03/06 00:43:01;;;;;;;19.05;11.20;;;;;;;8.37;31.78;101505.81;5071684;28;20523;-61
2022/03/06 00:45:27;;;;;;;20.65;11.73;;;;;;;8.34;31.84;101510.28;5071575;28;20044;-60
2022/03/06 00:47:54;;;;;;;20.35;12.63;;;;;;;8.30;32.06;101510.44;5071644;28;20119;-60
2022/03/06 00:50:21;;;;;;;19.02;12.57;;;;;;;8.29;32.19;101506.09;5071947;28;20052;-61
2022/03/06 00:52:47;;;;;;;18.90;12.23;;;;;;;8.31;31.93;101507.75;5071257;28;20075;-61
2022/03/06 00:55:14;;;;;;;16.88;11.68;;;;;;;8.31;32.22;101505.13;5071890;28;20417;-61
2022/03/06 00:57:41;;;;;;;19.30;12.05;;;;;;;8.30;32.06;101502.59;5070070;28;20048;-60
2022/03/06 01:00:08;;;;;;;20.77;12.90;;;;;;;8.29;32.22;101506.09;5071588;28;20068;-60
2022/03/06 01:02:35;;;;;;;18.30;11.55;;;;;;;8.28;32.28;101510.50;5071338;28;20049;-60
2022/03/06 01:05:03;;;;;;;19.38;13.10;;;;;;;8.26;32.15;101501.81;5071532;28;20136;-60
2022/03/06 01:07:30;;;;;;;19.88;12.98;;;;;;;8.25;32.38;101500.16;5071585;28;20562;-60
2022/03/06 01:09:57;;;;;;;19.63;12.50;;;;;;;8.21;32.41;101495.91;5066736;28;20044;-61
2022/03/06 01:12:23;;;;;;;19.50;12.52;;;;;;;8.20;32.66;101504.66;5071577;28;20094;-60
2022/03/06 01:14:50;;;;;;;18.08;12.55;;;;;;;8.17;32.75;101507.38;5070321;28;20489;-60
2022/03/06 01:17:17;;;;;;;18.85;12.27;;;;;;;8.15;32.90;101501.34;5071227;28;20047;-60
2022/03/06 01:19:44;;;;;;;20.33;12.55;;;;;;;8.13;32.74;101500.56;5071304;28;20060;-60
2022/03/06 01:22:11;;;;;;;19.75;12.15;;;;;;;8.10;33.03;101495.41;5070981;28;20447;-61
2022/03/06 01:24:37;;;;;;;20.15;12.02;;;;;;;8.08;32.78;101492.03;5071234;28;20213;-60
2022/03/06 01:27:04;;;;;;;20.70;12.63;;;;;;;8.03;33.08;101481.72;5071070;28;20068;-60
2022/03/06 01:29:31;;;;;;;21.42;13.25;;;;;;;8.03;32.92;101483.50;5071047;28;20044;-60
2022/03/06 01:31:57;;;;;;;18.70;12.23;;;;;;;8.01;33.06;101481.78;5069432;28;20098;-61
2022/03/06 01:34:24;;;;;;;19.60;11.57;;;;;;;7.97;32.95;101480.19;5068118;28;20040;-60
2022/03/06 01:36:51;;;;;;;17.98;11.98;;;;;;;7.99;32.92;101486.19;5071390;28;20075;-60
2022/03/06 01:39:17;;;;;;;21.98;12.75;;;;;;;7.95;33.02;101481.13;5071059;28;20071;-60
2022/03/06 01:41:44;;;;;;;19.50;12.63;;;;;;;7.96;32.84;101472.38;5070865;28;20527;-60
2022/03/06 01:44:13;;;;;;;21.73;12.98;;;;;;;7.92;32.92;101474.25;5071252;28;20040;-61
2022/03/06 01:46:40;;;;;;;22.17;12.52;;;;;;;7.97;32.90;101472.34;5071133;28;20036;-60
2022/03/06 01:49:07;;;;;;;20.10;12.65;;;;;;;7.97;32.90;101471.47;5070102;28;20083;-60
2022/03/06 01:51:33;;;;;;;20.33;12.68;;;;;;;7.98;32.73;101468.78;5071122;28;20045;-60
2022/03/06 01:54:00;;;;;;;18.77;12.30;;;;;;;8.03;32.85;101465.19;5070982;28;20087;-60
2022/03/06 01:56:27;;;;;;;22.08;12.30;;;;;;;8.01;32.94;101467.84;5070955;28;20048;-60
2022/03/06 01:58:55;;;;;;;18.88;13.00;;;;;;;8.00;33.11;101467.00;5070719;28;20102;-61
2022/03/06 02:01:22;;;;;;;20.08;12.80;;;;;;;8.00;33.05;101461.78;5071015;28;20081;-61
2022/03/06 02:03:49;;;;;;;20.98;12.57;;;;;;;7.99;33.21;101459.22;5070982;28;20079;-61
2022/03/06 02:06:19;;;;;;;18.75;12.50;;;;;;;7.97;33.01;101454.03;5069675;28;20041;-61
2022/03/06 02:08:46;;;;;;;18.90;11.75;;;;;;;7.98;33.08;101458.34;5070823;28;20405;-61
2022/03/06 02:11:14;;;;;;;20.10;12.52;;;;;;;7.98;33.32;101450.50;5070853;28;20498;-61
2022/03/06 02:13:44;;;;;;;18.77;12.60;;;;;;;7.95;33.29;101444.56;5071200;28;20051;-60
2022/03/06 02:16:11;;;;;;;21.48;13.10;;;;;;;7.95;33.53;101448.00;5073787;28;20454;-61
2022/03/06 02:18:38;;;;;;;20.83;13.10;;;;;;;7.95;33.25;101442.78;5073979;28;20048;-61
2022/03/06 02:21:10;;;;;;;21.00;12.57;;;;;;;7.96;33.38;101441.00;5074455;28;20052;-61
2022/03/06 02:23:37;;;;;;;19.10;12.63;;;;;;;7.94;33.46;101437.59;5073692;28;20072;-60
2022/03/06 02:26:05;;;;;;;19.83;13.00;;;;;;;7.95;33.27;101437.56;5074430;28;20049;-60
2022/03/06 02:28:32;;;;;;;18.23;11.95;;;;;;;7.91;33.50;101433.34;5074400;28;20048;-63
2022/03/06 02:31:00;;;;;;;20.77;12.65;;;;;;;7.93;33.32;101438.50;5074361;28;20052;-60
2022/03/06 02:33:26;;;;;;;18.77;12.82;;;;;;;7.92;33.43;101442.91;5074428;28;20045;-61
2022/03/06 02:35:53;;;;;;;21.48;13.82;;;;;;;7.93;33.36;101436.75;5074114;28;20041;-62
2022/03/06 02:38:20;;;;;;;19.98;12.75;;;;;;;7.91;33.51;101435.09;5072917;28;20056;-60
2022/03/06 02:40:47;;;;;;;20.25;12.82;;;;;;;7.87;33.51;101434.34;5073612;28;20151;-60
2022/03/06 02:43:15;;;;;;;19.98;13.00;;;;;;;7.84;33.49;101432.69;5074237;28;20048;-60
2022/03/06 02:45:43;;;;;;;21.05;12.75;;;;;;;7.78;33.92;101430.31;5073935;28;20051;-60
2022/03/06 02:48:10;;;;;;;20.17;13.20;;;;;;;7.76;34.30;101439.94;5074241;28;20055;-60
2022/03/06 02:50:41;;;;;;;20.00;12.07;;;;;;;7.75;34.45;101438.22;5074124;28;20056;-60
2022/03/06 02:53:09;;;;;;;19.48;12.50;;;;;;;7.75;34.54;101437.38;5074156;28;20036;-61
2022/03/06 02:55:37;;;;;;;19.38;12.43;;;;;;;7.69;34.84;101438.44;5073027;28;20098;-61
2022/03/06 02:58:04;;;;;;;20.17;12.77;;;;;;;7.64;34.95;101442.94;5073867;28;20044;-60
2022/03/06 03:00:30;;;;;;;22.15;13.45;;;;;;;7.61;35.08;101446.53;5073881;28;20040;-60
2022/03/06 03:02:57;;;;;;;19.60;12.88;;;;;;;7.57;35.55;101441.44;5073041;28;20044;-60
2022/03/06 03:05:26;;;;;;;21.23;12.77;;;;;;;7.50;35.81;101443.41;5073842;28;20568;-61
2022/03/06 03:07:53;;;;;;;21.30;13.18;;;;;;;7.41;36.24;101436.72;5073500;28;20127;-61
2022/03/06 03:10:22;;;;;;;20.83;12.63;;;;;;;7.35;36.19;101437.78;5072716;28;20052;-60
2022/03/06 03:12:50;;;;;;;21.17;12.02;;;;;;;7.33;36.61;101438.72;5073711;28;20135;-61
2022/03/06 03:15:17;;;;;;;19.95;12.57;;;;;;;7.33;36.74;101450.03;5073590;28;20041;-60
2022/03/06 03:17:44;;;;;;;20.52;12.98;;;;;;;7.34;36.51;101437.84;5073499;28;20394;-60
2022/03/06 03:20:12;;;;;;;17.70;11.98;;;;;;;7.34;36.48;101441.28;5073670;28;20102;-61
2022/03/06 03:22:39;;;;;;;22.15;13.75;;;;;;;7.39;36.76;101443.75;5073408;28;20063;-63
2022/03/06 03:25:07;;;;;;;22.10;14.20;;;;;;;7.41;36.92;101443.72;5073335;28;20052;-61
2022/03/06 03:27:34;;;;;;;22.23;13.25;;;;;;;7.42;36.93;101440.19;5071659;28;20455;-62
2022/03/06 03:30:03;;;;;;;22.08;13.32;;;;;;;7.43;37.33;101445.38;5073214;28;20513;-62
2022/03/06 03:32:29;;;;;;;22.02;14.27;;;;;;;7.45;37.24;101446.19;5073353;28;20488;-60
2022/03/06 03:34:56;;;;;;;24.10;13.85;;;;;;;7.44;37.11;101451.44;5072913;28;20398;-60
2022/03/06 03:37:23;;;;;;;23.77;14.52;;;;;;;7.43;37.14;101445.38;5073104;28;20044;-60
2022/03/06 03:39:49;;;;;;;25.38;13.77;;;;;;;7.42;37.20;101445.44;5072821;28;20044;-60
2022/03/06 03:42:16;;;;;;;21.88;14.15;;;;;;;7.41;37.50;101443.72;5073273;28;20401;-60
2022/03/06 03:44:43;;;;;;;23.40;14.05;;;;;;;7.42;37.83;101442.81;5071668;28;20045;-60
2022/03/06 03:47:10;;;;;;;22.63;14.40;;;;;;;7.38;37.98;101447.28;5073117;28;20045;-61
2022/03/06 03:49:36;;;;;;;22.08;13.10;;;;;;;7.38;37.80;101452.50;5072798;28;20049;-61
2022/03/06 03:52:03;;;;;;;23.17;13.63;;;;;;;7.37;37.86;101449.94;5073128;28;20508;-60
2022/03/06 03:54:30;;;;;;;24.23;13.15;;;;;;;7.38;38.11;101460.31;5072772;28;20048;-60
2022/03/06 03:56:56;;;;;;;22.95;12.68;;;;;;;7.39;37.79;101455.94;5072768;28;20040;-61
2022/03/06 03:59:23;;;;;;;20.70;12.63;;;;;;;7.42;37.76;101448.03;5072130;28;20109;-60
2022/03/06 04:01:51;;;;;;;20.15;12.43;;;;;;;7.42;37.56;101463.69;5070068;28;20594;-60
2022/03/06 04:04:19;;;;;;;20.58;12.23;;;;;;;7.42;37.80;101459.31;5065311;28;20135;-61
2022/03/06 04:06:46;;;;;;;21.98;13.40;;;;;;;7.42;37.91;101463.69;5068898;28;20045;-60
2022/03/06 04:09:12;;;;;;;21.80;13.10;;;;;;;7.40;38.11;101457.66;5074281;28;20052;-60
2022/03/06 04:11:39;;;;;;;20.73;12.13;;;;;;;7.39;38.38;101461.16;5068926;28;20052;-61
2022/03/06 04:14:06;;;;;;;24.38;14.05;;;;;;;7.30;39.01;101460.56;5069126;28;20067;-60
2022/03/06 04:16:32;;;;;;;22.42;14.10;;;;;;;7.28;39.81;101458.91;5069070;28;20064;-60
2022/03/06 04:18:59;;;;;;;21.85;13.88;;;;;;;7.25;40.18;101462.47;5067193;28;20056;-60
2022/03/06 04:21:26;;;;;;;19.77;13.55;;;;;;;7.22;40.24;101465.16;5069079;28;20059;-63
2022/03/06 04:23:52;;;;;;;21.58;13.93;;;;;;;7.20;40.59;101466.97;5068899;28;20493;-61
2022/03/06 04:26:19;;;;;;;24.33;14.35;;;;;;;7.14;40.92;101468.00;5068977;28;20056;-61
2022/03/06 04:28:45;;;;;;;22.50;14.02;;;;;;;7.13;40.87;101466.28;5068593;28;20076;-60
2022/03/06 04:31:12;;;;;;;23.08;14.45;;;;;;;7.11;40.81;101475.06;5068878;28;20040;-62
2022/03/06 04:33:39;;;;;;;23.30;13.48;;;;;;;7.12;41.00;101471.56;5068392;28;20574;-63
2022/03/06 04:36:06;;;;;;;24.65;14.95;;;;;;;7.05;41.19;101473.53;5068449;28;20053;-65
2022/03/06 04:38:34;;;;;;;22.50;13.77;;;;;;;7.03;41.27;101475.31;5068891;28;20048;-64
2022/03/06 04:41:00;;;;;;;23.23;14.13;;;;;;;7.03;41.23;101475.31;5068319;28;20067;-62
2022/03/06 04:43:27;;;;;;;25.02;15.15;;;;;;;7.02;41.52;101474.47;5068920;28;20052;-62
2022/03/06 04:45:54;;;;;;;23.42;14.23;;;;;;;7.00;41.59;101478.03;5068717;28;20052;-63
2022/03/06 04:48:20;;;;;;;23.10;14.23;;;;;;;6.97;41.54;101485.94;5068809;28;20400;-62
2022/03/06 04:50:47;;;;;;;24.52;14.60;;;;;;;6.94;41.93;101486.03;5067538;28;20058;-62
2022/03/06 04:53:14;;;;;;;23.92;15.18;;;;;;;6.94;41.92;101475.59;5068552;28;20036;-62
2022/03/06 04:55:40;;;;;;;24.05;14.30;;;;;;;6.95;42.02;101487.75;5068692;28;20049;-61
2022/03/06 04:58:07;;;;;;;23.83;15.27;;;;;;;6.95;42.03;101485.13;5068606;28;20048;-62
2022/03/06 05:00:34;;;;;;;21.85;14.30;;;;;;;6.95;42.12;101488.59;5068157;28;20224;-62
2022/03/06 05:03:01;;;;;;;21.42;13.82;;;;;;;6.95;41.95;101479.91;5068253;28;20041;-62
2022/03/06 05:05:28;;;;;;;22.95;13.45;;;;;;;6.94;42.00;101486.03;5068310;28;20084;-64
2022/03/06 05:07:55;;;;;;;24.23;13.82;;;;;;;6.95;41.95;101490.34;5068077;28;20807;-62
2022/03/06 05:10:21;;;;;;;22.52;14.45;;;;;;;6.95;42.02;101482.53;5067157;28;20053;-62
2022/03/06 05:12:48;;;;;;;20.85;13.73;;;;;;;6.90;41.84;101476.59;5068266;28;20420;-62
2022/03/06 05:15:15;;;;;;;24.05;14.15;;;;;;;6.90;41.99;101481.81;5068213;28;20047;-62
2022/03/06 05:17:42;;;;;;;23.38;14.00;;;;;;;6.88;41.82;101484.44;5068296;28;20055;-62
2022/03/06 05:20:11;;;;;;;21.45;13.45;;;;;;;6.89;41.89;101480.94;5068268;28;20524;-62
2022/03/06 05:22:39;;;;;;;21.45;13.50;;;;;;;6.89;41.62;101480.94;5068064;28;20048;-62
2022/03/06 05:25:07;;;;;;;23.60;14.40;;;;;;;6.92;41.73;101482.59;5067592;28;20041;-62
2022/03/06 05:27:35;;;;;;;21.33;13.25;;;;;;;6.91;41.70;101486.97;5068082;28;20044;-62
2022/03/06 05:30:03;;;;;;;21.98;13.13;;;;;;;6.90;41.58;101481.81;5068122;28;20055;-62
2022/03/06 05:32:29;;;;;;;21.15;12.73;;;;;;;6.90;41.70;101485.25;5067993;28;20106;-62
2022/03/06 05:34:56;;;;;;;20.10;13.10;;;;;;;6.89;41.67;101493.97;5068137;28;20102;-62
2022/03/06 05:37:23;;;;;;;21.17;13.40;;;;;;;6.87;41.81;101485.38;5068345;28;20054;-62
2022/03/06 05:39:49;;;;;;;23.77;14.90;;;;;;;6.84;42.02;101495.88;5067647;28;20098;-62
2022/03/06 05:42:17;;;;;;;23.77;13.65;;;;;;;6.85;42.21;101492.38;5067558;28;20110;-62
2022/03/06 05:44:43;;;;;;;23.13;13.13;;;;;;;6.83;42.67;101492.41;5067725;28;20090;-65
2022/03/06 05:47:10;;;;;;;24.75;14.20;;;;;;;6.81;42.72;101491.59;5067685;28;20048;-62
2022/03/06 05:49:36;;;;;;;22.58;13.50;;;;;;;6.81;42.89;101499.41;5067389;28;20500;-62
2022/03/06 05:52:04;;;;;;;21.15;13.50;;;;;;;6.83;43.00;101488.94;5072006;28;20048;-62
2022/03/06 05:54:30;;;;;;;22.15;13.73;;;;;;;6.82;43.12;101502.91;5071700;28;20071;-62
2022/03/06 05:56:57;;;;;;;23.75;14.10;;;;;;;6.81;43.32;101501.19;5070581;28;20098;-62
2022/03/06 05:59:24;;;;;;;26.77;14.60;;;;;;;6.82;43.16;101500.28;5071915;28;20493;-62
2022/03/06 06:01:51;;;;;;;23.75;13.98;;;;;;;6.81;43.55;101496.81;5071713;28;20055;-62
2022/03/06 06:04:18;;;;;;;23.58;13.73;;;;;;;6.82;43.47;101502.91;5071637;28;20475;-62
2022/03/06 06:06:45;;;;;;;23.25;14.30;;;;;;;6.83;43.31;101499.38;5071439;28;20040;-62
2022/03/06 06:09:18;;;;;;;23.05;13.75;;;;;;;6.84;43.69;101501.97;5071441;28;20554;-62
2022/03/06 06:11:50;;;;;;;20.50;13.90;;;;;;;6.82;43.94;101508.97;5070509;28;20087;-63
2022/03/06 06:14:16;;;;;;;25.02;14.63;;;;;;;6.83;43.94;101499.38;5071486;28;20090;-62
2022/03/06 06:16:46;;;;;;;26.13;15.38;;;;;;;6.85;44.15;101508.03;5070206;28;20512;-62
2022/03/06 06:19:13;;;;;;;24.27;13.10;;;;;;;6.89;44.19;101509.63;5071464;28;20455;-62
2022/03/06 06:21:43;;;;;;;25.08;12.10;;;;;;;6.97;44.10;101512.88;5071608;28;20560;-61
2022/03/06 06:24:14;;;;;;;21.73;12.25;;;;;;;7.01;43.74;101516.28;5071522;28;20060;-63
2022/03/06 06:26:49;;;;;;;19.08;10.82;;;;;;;7.10;43.09;101515.16;5071212;28;20049;-62
2022/03/06 06:29:15;;;;;;;15.63;10.60;;;;;;;7.12;42.69;101514.19;5071093;28;20048;-62
2022/03/06 06:31:42;;;;;;;15.90;9.38;;;;;;;7.19;42.44;101514.88;5071088;28;20056;-62
2022/03/06 06:34:10;;;;;;;15.00;9.50;;;;;;;7.24;41.81;101526.03;5070600;28;20121;-62
2022/03/06 06:36:37;;;;;;;15.40;9.65;;;;;;;7.30;41.42;101519.75;5071088;28;20044;-62
2022/03/06 06:39:03;;;;;;;15.85;9.88;;;;;;;7.38;40.74;101522.13;5071447;28;20044;-63
2022/03/06 06:41:30;;;;;;;14.85;9.25;;;;;;;7.42;40.19;101527.22;5070177;28;20118;-62
2022/03/06 06:43:57;;;;;;;14.60;9.18;;;;;;;7.49;39.65;101526.13;5070730;28;20117;-63
2022/03/06 06:46:23;;;;;;;15.13;9.18;;;;;;;7.54;38.98;101525.97;5070924;28;20044;-61
2022/03/06 06:48:50;;;;;;;15.65;9.98;;;;;;;7.61;38.50;101522.28;5069243;28;20641;-62
2022/03/06 06:51:17;;;;;;;16.90;10.05;;;;;;;7.68;37.87;101530.75;5071012;28;20056;-63
2022/03/06 06:53:43;;;;;;;16.92;10.15;;;;;;;7.74;37.60;101529.72;5070758;28;20062;-62
2022/03/06 06:56:10;;;;;;;15.10;9.68;;;;;;;7.79;37.36;101530.44;5070766;28;20130;-62
2022/03/06 06:58:37;;;;;;;16.73;10.00;;;;;;;7.82;37.29;101531.19;5076513;28;20040;-62
2022/03/06 07:01:03;;;;;;;13.68;9.30;;;;;;;7.88;37.00;101526.66;5078100;28;20045;-62
2022/03/06 07:03:30;;;;;;;16.02;9.70;;;;;;;7.91;37.05;101527.41;5070858;28;20036;-64
2022/03/06 07:05:58;;;;;;;16.08;9.43;;;;;;;7.97;36.54;101534.19;5069657;28;20048;-62
2022/03/06 07:08:25;;;;;;;14.98;9.10;;;;;;;8.00;36.49;101532.34;5070405;28;20048;-61
2022/03/06 07:10:51;;;;;;;16.55;9.50;;;;;;;8.01;36.60;101535.78;5070135;28;20048;-62
2022/03/06 07:13:18;;;;;;;13.25;8.80;;;;;;;8.02;36.35;101532.28;5070264;28;20045;-62
2022/03/06 07:15:45;;;;;;;15.25;9.18;;;;;;;8.03;36.37;101541.84;5070188;28;20040;-62
2022/03/06 07:18:12;;;;;;;12.25;8.23;;;;;;;8.06;36.32;101538.25;5070210;28;20098;-62
2022/03/06 07:20:39;;;;;;;13.63;9.20;;;;;;;8.08;36.24;101541.69;5070150;28;20094;-62
2022/03/06 07:23:05;;;;;;;15.32;9.70;;;;;;;8.11;36.29;101537.22;5069548;28;20055;-62
2022/03/06 07:25:32;;;;;;;15.90;9.52;;;;;;;8.14;36.14;101541.50;5070120;28;20052;-62
2022/03/06 07:27:59;;;;;;;12.00;8.43;;;;;;;8.15;36.09;101545.78;5070028;28;20048;-62
2022/03/06 07:30:26;;;;;;;12.73;8.60;;;;;;;8.18;36.05;101537.84;5069943;28;20496;-62
2022/03/06 07:32:53;;;;;;;15.05;9.07;;;;;;;8.17;35.90;101539.59;5052355;28;20040;-62
2022/03/06 07:35:21;;;;;;;12.95;8.43;;;;;;;8.20;35.88;101543.03;5070175;28;20102;-62
2022/03/06 07:37:48;;;;;;;15.75;8.98;;;;;;;8.24;35.51;101548.13;5069833;28;20048;-63
2022/03/06 07:40:17;;;;;;;14.23;8.70;;;;;;;8.33;35.33;101544.34;5069001;28;20098;-62
2022/03/06 07:42:44;;;;;;;13.70;8.60;;;;;;;8.38;34.99;101541.53;5069526;28;20512;-62
2022/03/06 07:45:11;;;;;;;13.23;8.15;;;;;;;8.49;34.78;101544.66;5070131;28;20098;-62
2022/03/06 07:47:38;;;;;;;14.13;8.23;;;;;;;8.55;34.66;101549.69;5069836;28;20053;-62
2022/03/06 07:50:07;;;;;;;16.83;9.15;;;;;;;8.62;34.73;101548.56;5070015;28;20128;-62
2022/03/06 07:52:35;;;;;;;13.85;8.75;;;;;;;8.73;34.39;101542.94;5069687;28;20056;-66
2022/03/06 07:55:03;;;;;;;14.73;9.38;;;;;;;8.80;34.13;101541.81;5069571;28;20052;-62
2022/03/06 07:57:29;;;;;;;17.02;9.40;;;;;;;8.86;33.90;101545.97;5067720;28;20246;-62
2022/03/06 07:59:56;;;;;;;12.57;8.77;;;;;;;8.87;33.77;101550.28;5069073;28;20083;-62
2022/03/06 08:02:22;;;;;;;15.50;8.57;;;;;;;8.91;33.84;101551.03;5069320;28;20060;-62
2022/03/06 08:04:49;;;;;;;14.60;8.93;;;;;;;8.96;33.79;101551.72;5069084;28;20512;-63
2022/03/06 08:07:16;;;;;;;13.27;8.10;;;;;;;8.99;33.49;101546.41;5069686;28;20051;-62
2022/03/06 08:09:43;;;;;;;11.70;7.43;;;;;;;9.05;33.22;101559.22;5069155;28;20074;-62
2022/03/06 08:12:09;;;;;;;14.35;8.00;;;;;;;9.13;33.13;101551.97;5068501;28;20433;-62
2022/03/06 08:14:36;;;;;;;13.68;8.23;;;;;;;9.21;33.18;101554.28;5068265;28;20523;-62
2022/03/06 08:17:03;;;;;;;14.85;8.20;;;;;;;9.22;32.89;101550.75;5069184;28;20535;-62
2022/03/06 08:19:30;;;;;;;11.68;7.65;;;;;;;9.26;32.65;101546.25;5069105;28;20094;-61
2022/03/06 08:21:56;;;;;;;12.70;7.50;;;;;;;9.30;32.62;101553.09;5068748;28;20048;-63
2022/03/06 08:24:23;;;;;;;12.90;7.43;;;;;;;9.30;32.47;101559.16;5069059;28;20044;-63
2022/03/06 08:26:50;;;;;;;14.13;8.38;;;;;;;9.33;32.34;101555.56;5069050;28;20390;-61
2022/03/06 08:29:16;;;;;;;12.40;8.00;;;;;;;9.40;31.97;101548.34;5050679;28;20056;-61
2022/03/06 08:31:43;;;;;;;11.40;7.97;;;;;;;9.40;31.80;101557.06;5067387;28;20044;-62
2022/03/06 08:34:10;;;;;;;11.95;7.15;;;;;;;9.47;31.42;101548.06;5068739;28;20056;-62
2022/03/06 08:36:37;;;;;;;9.52;7.03;;;;;;;9.57;31.30;101550.31;5068754;28;20044;-62
2022/03/06 08:39:04;;;;;;;12.00;7.32;;;;;;;9.74;31.11;101563.59;5068976;28;20068;-62
2022/03/06 08:41:31;;;;;;;13.13;8.00;;;;;;;10.15;30.38;101552.31;5068222;28;20067;-62
2022/03/06 08:43:58;;;;;;;13.13;7.47;;;;;;;10.23;30.39;101552.88;5068576;28;20106;-63
2022/03/06 08:46:24;;;;;;;11.65;8.32;;;;;;;10.30;29.93;101558.72;5068049;28;20094;-62
2022/03/06 08:48:51;;;;;;;11.75;7.70;;;;;;;10.27;29.96;101549.19;5067162;28;20036;-61
2022/03/06 08:51:18;;;;;;;12.57;7.70;;;;;;;10.37;29.86;101559.31;5067955;28;20040;-64
2022/03/06 08:53:45;;;;;;;11.35;7.22;;;;;;;10.41;30.08;101553.00;5067479;28;20086;-63
2022/03/06 08:56:11;;;;;;;10.65;7.38;;;;;;;10.43;29.74;101556.44;5067241;28;20916;-63
2022/03/06 08:58:38;;;;;;;12.15;7.50;;;;;;;10.49;29.60;101556.19;5068586;28;20154;-62
2022/03/06 09:01:04;;;;;;;10.80;6.85;;;;;;;10.49;29.38;101561.44;5068675;28;20459;-67
2022/03/06 09:03:32;;;;;;;13.90;7.50;;;;;;;10.44;29.25;101558.16;5068332;28;20131;-62
2022/03/06 09:05:58;;;;;;;10.25;6.78;;;;;;;10.35;29.42;101554.13;5067618;28;20550;-62
2022/03/06 09:08:25;;;;;;;11.15;7.00;;;;;;;10.34;29.29;101554.19;5067961;28;20036;-67
2022/03/06 09:10:52;;;;;;;10.60;6.80;;;;;;;10.34;29.20;101555.03;5067401;28;20083;-62
2022/03/06 09:13:18;;;;;;;11.38;7.97;;;;;;;10.49;29.07;101556.19;5049829;28;20083;-63
2022/03/06 09:15:45;;;;;;;10.68;6.80;;;;;;;10.73;28.81;101556.88;5066315;28;20090;-62
2022/03/06 09:18:12;;;;;;;11.57;7.32;;;;;;;10.94;28.58;101552.44;5067483;28;20094;-67
2022/03/06 09:20:38;;;;;;;12.57;8.20;;;;;;;11.34;27.91;101552.38;5067349;28;20098;-67
2022/03/06 09:23:07;;;;;;;12.13;7.47;;;;;;;11.33;27.96;101548.03;5070845;28;20052;-62
2022/03/06 09:25:33;;;;;;;12.02;6.82;;;;;;;11.24;28.11;101546.69;5071857;28;20040;-62
2022/03/06 09:28:01;;;;;;;10.52;7.80;;;;;;;11.18;28.27;101549.59;5072481;28;20056;-63
2022/03/06 09:30:28;;;;;;;12.23;7.63;;;;;;;11.20;28.19;101547.78;5071924;28;20053;-63
2022/03/06 09:32:55;;;;;;;11.20;7.35;;;;;;;11.42;28.12;101552.84;5071309;28;20089;-61
2022/03/06 09:35:22;;;;;;;12.32;7.38;;;;;;;11.59;27.84;101538.94;5072229;28;20048;-62
2022/03/06 09:37:49;;;;;;;10.45;7.30;;;;;;;11.80;27.52;101543.22;5070469;28;20045;-62
2022/03/06 09:40:16;;;;;;;10.25;7.20;;;;;;;12.37;26.84;101538.63;5071869;28;20048;-63
2022/03/06 09:42:42;;;;;;;9.95;6.82;;;;;;;12.61;26.51;101540.91;5071637;28;20455;-65
2022/03/06 09:45:12;;;;;;;11.88;7.68;;;;;;;13.15;25.88;101538.00;5071978;28;20051;-63
2022/03/06 09:47:40;;;;;;;12.15;8.45;;;;;;;13.35;25.74;101534.28;5071624;28;20044;-63
2022/03/06 09:50:10;;;;;;;10.65;7.18;;;;;;;13.75;25.38;101531.22;5071882;28;20059;-63
2022/03/06 09:52:37;;;;;;;10.65;7.35;;;;;;;13.95;25.00;101527.41;5069084;28;20067;-62
2022/03/06 09:55:06;;;;;;;10.75;7.05;;;;;;;14.34;24.47;101520.72;5070890;28;20056;-62
2022/03/06 09:57:33;;;;;;;9.60;6.82;;;;;;;14.26;24.48;101516.84;5071769;28;20040;-63
2022/03/06 09:59:59;;;;;;;11.20;7.78;;;;;;;14.44;24.39;101523.66;5071521;28;20040;-63
2022/03/06 10:02:26;;;;;;;11.35;7.07;;;;;;;14.66;24.05;101506.53;5071714;28;20091;-62
2022/03/06 10:04:53;;;;;;;10.23;6.63;;;;;;;14.60;24.33;101515.66;5071532;28;20072;-62
2022/03/06 10:07:20;;;;;;;12.27;7.63;;;;;;;14.37;24.60;101514.41;5071469;28;20049;-62
2022/03/06 10:09:50;;;;;;;20.17;7.18;;;;;;;14.81;24.63;101508.22;5070821;28;20129;-61
2022/03/06 10:12:27;;;;;;;21.52;6.13;;;;;;;15.19;25.69;101509.41;5070791;28;20056;-61
2022/03/06 10:15:03;;;;;;;32.60;6.97;;;;;;;15.84;26.76;101502.56;5070195;28;20488;-66
2022/03/06 10:17:31;;;;;;;10.45;7.15;;;;;;;15.87;26.33;101494.44;5070727;28;20096;-62
2022/03/06 10:20:12;;;;;;;10.05;6.75;;;;;;;15.96;25.40;101493.81;5070833;28;20041;-63
2022/03/06 10:22:41;;;;;;;10.85;7.10;;;;;;;16.09;24.63;101485.03;5070713;28;20052;-63
2022/03/06 10:25:19;;;;;;;11.63;7.35;;;;;;;16.26;23.96;101490.00;5070748;28;20404;-66
2022/03/06 10:27:57;;;;;;;8.88;7.18;;;;;;;16.38;23.31;101479.53;5070984;28;20102;-62
2022/03/06 10:30:34;;;;;;;9.30;6.75;;;;;;;16.27;23.14;101473.16;5070068;28;20440;-62
2022/03/06 10:33:10;;;;;;;11.55;7.22;;;;;;;16.52;22.78;101475.91;5070702;28;20110;-63
2022/03/06 10:35:42;;;;;;;10.38;6.47;;;;;;;16.62;22.63;101469.88;5070345;28;20062;-67
2022/03/06 10:38:27;;;;;;;12.32;8.18;;;;;;;16.65;22.05;101471.44;5070809;28;20076;-61
2022/03/06 10:40:56;;;;;;;10.25;7.78;;;;;;;16.75;21.57;101467.19;5065114;28;20053;-61
2022/03/06 10:43:33;;;;;;;11.05;7.85;;;;;;;16.64;21.25;101462.63;5071150;28;20523;-61
2022/03/06 10:46:13;;;;;;;10.80;7.40;;;;;;;16.69;21.07;101464.13;5067377;28;20625;-61
2022/03/06 10:48:43;;;;;;;9.57;7.32;;;;;;;16.90;20.70;101459.06;5070942;28;20052;-62
2022/03/06 10:51:13;;;;;;;10.10;7.75;;;;;;;17.16;20.87;101443.97;5070886;28;20044;-62
2022/03/06 10:53:40;;;;;;;9.63;6.95;;;;;;;17.22;20.41;101448.00;5070622;28;20044;-62
2022/03/06 10:56:12;;;;;;;11.18;7.13;;;;;;;17.35;20.58;101439.97;5070844;28;20069;-62
2022/03/06 10:58:43;;;;;;;19.55;14.25;;;;;;;17.53;19.87;101440.38;5070710;28;20043;-62
2022/03/06 11:01:26;;;;;;;13.82;10.00;;;;;;;17.77;19.78;101440.34;5064851;28;20040;-62
2022/03/06 11:03:54;;;;;;;13.75;8.80;;;;;;;17.91;19.64;101441.94;5070003;28;20048;-62
2022/03/06 11:06:21;;;;;;;18.50;13.43;;;;;;;18.09;19.35;101434.38;5067407;28;20129;-62
2022/03/06 11:08:48;;;;;;;25.15;17.35;;;;;;;17.93;19.77;101432.94;5068331;28;20493;-64
2022/03/06 11:11:20;;;;;;;17.52;11.82;;;;;;;18.06;19.12;101440.78;5070263;28;20087;-67
2022/03/06 11:13:47;;;;;;;10.18;8.00;;;;;;;18.35;19.02;101436.84;5070520;28;20088;-62
2022/03/06 11:16:15;;;;;;;10.63;8.18;;;;;;;18.48;19.33;101440.19;5069050;28;20041;-62
2022/03/06 11:18:42;;;;;;;10.15;7.50;;;;;;;18.27;19.20;101432.97;5070355;28;20052;-66
2022/03/06 11:21:09;;;;;;;13.23;10.38;;;;;;;18.39;18.99;101427.66;5070424;28;20055;-63